Multratug 19 — PCHZ — position and weather

sailwx.info

Track history (hours):
 
Tides and Currents Weather Stations Pressure Air Temp Water Temp Dewpoint Dewpoint Depression Visibility Wind Speed Wind Dir Waves Ship Positions

Multratug 19

Last reported at 2014-Oct-21 09:33 UTC. Time now 2014-Oct-21 10:35 UTC.
Position N 51°20' E 003°49'.

Length 32 m; draft 5.6 m.

Type: Tug. MMSI: 245875000.

Date/timePositionNaut miles runAvg speedWind from/ knotsBaromVisibWave heightAir tempDewpointWater temp
2014-Oct-21 09:33N 51°20' E 003°49'0 0.0
2014-Oct-21 08:33N 51°20' E 003°49'0 0.0
2014-Oct-21 07:34N 51°20' E 003°49'0 0.0
2014-Oct-21 06:34N 51°20' E 003°49'1 0.6
2014-Oct-21 05:34N 51°20' E 003°49'3 3.2
2014-Oct-21 04:34N 51°17' E 003°51'0 0.3
2014-Oct-21 03:33N 51°16' E 003°51'0 0.0
2014-Oct-21 02:33N 51°16' E 003°51'0 0.0
2014-Oct-21 01:33N 51°16' E 003°51'4 4.3
2014-Oct-21 00:34N 51°20' E 003°49'2 2.3
2014-Oct-20 23:34N 51°22' E 003°45'3 3.0
2014-Oct-20 22:34N 51°20' E 003°49'1 0.7
2014-Oct-20 21:33N 51°19' E 003°50'3 2.8
2014-Oct-20 20:33N 51°16' E 003°51'0 0.1
2014-Oct-20 19:33N 51°16' E 003°51'1 1.1
2014-Oct-20 18:34N 51°17' E 003°50'2 2.3
2014-Oct-20 17:34N 51°20' E 003°49'1 0.6
2014-Oct-20 16:33N 51°20' E 003°49'0 0.0
2014-Oct-20 15:34N 51°20' E 003°49'0 0.0
2014-Oct-20 14:33N 51°20' E 003°49'1 0.7
2014-Oct-20 13:33N 51°20' E 003°49'3 2.9
2014-Oct-20 12:34N 51°17' E 003°50'3 3.0
2014-Oct-20 11:34N 51°20' E 003°49'4 3.5
2014-Oct-20 10:33N 51°22' E 003°44'3 3.2
2014-Oct-20 09:34N 51°20' E 003°49'0 0.0
2014-Oct-20 08:34N 51°20' E 003°49'0 0.0
2014-Oct-20 07:34N 51°20' E 003°49'0 0.0
2014-Oct-20 06:34N 51°20' E 003°49'0 0.0
2014-Oct-20 05:34N 51°20' E 003°49'0 0.0
2014-Oct-20 04:34N 51°20' E 003°49'0 0.0
2014-Oct-20 03:34N 51°20' E 003°49'0 0.0
2014-Oct-20 02:34N 51°20' E 003°49'0 0.0
2014-Oct-20 01:33N 51°20' E 003°49'0 0.0
2014-Oct-20 00:34N 51°20' E 003°49'0 0.0
2014-Oct-19 23:34N 51°20' E 003°49'0 0.4
2014-Oct-19 22:34N 51°20' E 003°49'4 3.6
2014-Oct-19 21:33N 51°16' E 003°51'3 3.1
2014-Oct-19 20:33N 51°19' E 003°49'0 0.4
2014-Oct-19 19:34N 51°20' E 003°49'3 2.9
2014-Oct-19 18:33N 51°22' E 003°45'3 2.6
2014-Oct-19 17:34N 51°20' E 003°49'0 0.0
2014-Oct-19 16:34N 51°20' E 003°49'0 0.0
2014-Oct-19 15:34N 51°20' E 003°49'0 0.0
2014-Oct-19 14:34N 51°20' E 003°49'0 0.0
2014-Oct-19 13:34N 51°20' E 003°49'0 0.0
2014-Oct-19 12:34N 51°20' E 003°49'0 0.0
2014-Oct-19 11:34N 51°20' E 003°49'0 0.0
2014-Oct-19 10:34N 51°20' E 003°49'0 0.0
2014-Oct-19 09:33N 51°20' E 003°49'0 0.0
2014-Oct-19 08:34N 51°20' E 003°49'0 0.0
2014-Oct-19 07:34N 51°20' E 003°49'0 0.0
2014-Oct-19 06:34N 51°20' E 003°49'0 0.0
2014-Oct-19 05:34N 51°20' E 003°49'0 0.0
2014-Oct-19 04:34N 51°20' E 003°49'1 0.7
2014-Oct-19 03:33N 51°21' E 003°48'5 4.7
2014-Oct-19 02:33N 51°25' E 003°44'5 5.3
2014-Oct-19 01:34N 51°20' E 003°49'0 0.2
2014-Oct-19 00:33N 51°20' E 003°49'0 0.0
2014-Oct-18 23:34N 51°20' E 003°49'0 0.0
2014-Oct-18 22:34N 51°20' E 003°49'0 0.0
2014-Oct-18 21:34N 51°20' E 003°49'0 0.0
2014-Oct-18 20:34N 51°20' E 003°49'0 0.0
2014-Oct-18 19:33N 51°20' E 003°49'0 0.0
2014-Oct-18 18:33N 51°20' E 003°49'0 0.0
2014-Oct-18 17:33N 51°20' E 003°49'0 0.0
2014-Oct-18 16:34N 51°20' E 003°49'0 0.0
2014-Oct-18 15:34N 51°20' E 003°49'0 0.0
2014-Oct-18 14:34N 51°20' E 003°49'0 0.0
2014-Oct-18 13:34N 51°20' E 003°49'0 0.0
2014-Oct-18 12:34N 51°20' E 003°49'0 0.0
2014-Oct-18 11:33N 51°20' E 003°49'0 0.0
2014-Oct-18 10:34N 51°20' E 003°49'0 0.0
2014-Oct-18 09:33N 51°20' E 003°49'0 0.0
2014-Oct-18 08:34N 51°20' E 003°49'0 0.0
2014-Oct-18 07:34N 51°20' E 003°49'0 0.0
2014-Oct-18 06:33N 51°20' E 003°49'0 0.0
2014-Oct-18 05:34N 51°20' E 003°49'0 0.0
2014-Oct-18 04:34N 51°20' E 003°49'1 0.8
2014-Oct-18 03:34N 51°19' E 003°49'4 4.0
2014-Oct-18 02:34N 51°16' E 003°50'6 6.5
2014-Oct-18 01:33N 51°09' E 003°47'1 0.6
2014-Oct-18 00:33N 51°09' E 003°48'3 2.7
2014-Oct-17 23:33N 51°11' E 003°48'7 7.4
2014-Oct-17 22:33N 51°19' E 003°50'2 1.6
2014-Oct-17 21:33N 51°20' E 003°49'0 0.0
2014-Oct-17 20:34N 51°20' E 003°49'0 0.0
2014-Oct-17 19:34N 51°20' E 003°49'0 0.0
2014-Oct-17 18:34N 51°20' E 003°49'0 0.0
2014-Oct-17 17:34N 51°20' E 003°49'0 0.0
2014-Oct-17 16:34N 51°20' E 003°49'0 0.0
2014-Oct-17 15:33N 51°20' E 003°49'0 0.0
2014-Oct-17 14:34N 51°20' E 003°49'0 0.0
2014-Oct-17 13:34N 51°20' E 003°49'0 0.0
2014-Oct-17 12:33N 51°20' E 003°49'0 0.0
2014-Oct-17 11:34N 51°20' E 003°49'0 0.0
2014-Oct-17 10:34N 51°20' E 003°49'7 6.8
2014-Oct-17 09:33N 51°25' E 003°42'2 1.9
2014-Oct-17 08:34N 51°27' E 003°42'4 3.5
2014-Oct-17 07:33N 51°26' E 003°37'4 4.1
2014-Oct-17 06:33N 51°23' E 003°42'2 2.5
2014-Oct-17 05:34N 51°22' E 003°45'3 2.7
2014-Oct-17 04:34N 51°20' E 003°49'0 0.0
2014-Oct-17 03:33N 51°20' E 003°49'0 0.0
2014-Oct-17 02:34N 51°20' E 003°49'0 0.0
2014-Oct-17 01:33N 51°20' E 003°49'0 0.0
2014-Oct-17 00:34N 51°20' E 003°49'0 0.0
2014-Oct-16 23:34N 51°20' E 003°49'0 0.2
2014-Oct-16 22:33N 51°20' E 003°49'6 6.3
2014-Oct-16 21:33N 51°14' E 003°48'8 8.3
2014-Oct-16 20:33N 51°06' E 003°45'3 2.8
2014-Oct-16 19:34N 51°08' E 003°47'6 6.0
2014-Oct-16 18:33N 51°14' E 003°49'5 5.3
2014-Oct-16 17:33N 51°20' E 003°49'3 2.8
2014-Oct-16 16:34N 51°22' E 003°46'2 2.3
2014-Oct-16 15:34N 51°20' E 003°49'0 0.0
2014-Oct-16 14:33N 51°20' E 003°49'0 0.0
2014-Oct-16 13:33N 51°20' E 003°49'0 0.0
2014-Oct-16 12:33N 51°20' E 003°49'0 0.0
2014-Oct-16 11:34N 51°20' E 003°49'0 0.0
2014-Oct-16 10:34N 51°20' E 003°49'0 0.0
2014-Oct-16 09:33N 51°20' E 003°49'0 0.0
2014-Oct-16 08:34N 51°20' E 003°49'0 0.0
2014-Oct-16 07:34N 51°20' E 003°49'0 0.0
2014-Oct-16 06:34N 51°20' E 003°49'0 0.0
2014-Oct-16 05:34N 51°20' E 003°49'0 0.0
2014-Oct-16 04:34N 51°20' E 003°49'0 0.0
2014-Oct-16 03:34N 51°20' E 003°49'0 0.0
2014-Oct-16 02:33N 51°20' E 003°49'0 0.0
2014-Oct-16 01:34N 51°20' E 003°49'0 0.0
2014-Oct-16 00:34N 51°20' E 003°49'0 0.0
2014-Oct-15 23:34N 51°20' E 003°49'0 0.0
2014-Oct-15 22:34N 51°20' E 003°49'0 0.0
2014-Oct-15 21:33N 51°20' E 003°49'7 7.1
2014-Oct-15 20:34N 51°26' E 003°41'2 1.8
2014-Oct-15 19:34N 51°27' E 003°41'1 1.3
2014-Oct-15 18:34N 51°27' E 003°40'1 1.1
2014-Oct-15 17:33N 51°28' E 003°40'0 0.0
2014-Oct-15 16:33N 51°28' E 003°40'0 0.1
2014-Oct-15 15:33N 51°28' E 003°40'0 0.4
2014-Oct-15 14:34N 51°28' E 003°41'4 3.5
2014-Oct-15 13:33N 51°24' E 003°43'6 5.5
2014-Oct-15 12:34N 51°20' E 003°49'0 0.0
2014-Oct-15 11:34N 51°20' E 003°49'0 0.0
2014-Oct-15 10:33N 51°20' E 003°49'0 0.0
2014-Oct-15 09:34N 51°20' E 003°49'0 0.0
2014-Oct-15 08:34N 51°20' E 003°49'0 0.0
2014-Oct-15 07:34N 51°20' E 003°49'0 0.0
2014-Oct-15 06:34N 51°20' E 003°49'2 1.8
2014-Oct-15 05:33N 51°21' E 003°46'2 1.8
2014-Oct-15 04:33N 51°20' E 003°49'0 0.0
2014-Oct-15 03:33N 51°20' E 003°49'0 0.0
2014-Oct-15 02:33N 51°20' E 003°49'0 0.0
2014-Oct-15 01:33N 51°20' E 003°49'0 0.0
2014-Oct-15 00:34N 51°20' E 003°49'1 0.6
2014-Oct-14 23:33N 51°20' E 003°49'0 0.2
2014-Oct-14 22:34N 51°19' E 003°49'6 5.8
2014-Oct-14 21:33N 51°14' E 003°48'3 2.9
2014-Oct-14 20:34N 51°11' E 003°48'4 4.0
2014-Oct-14 19:34N 51°15' E 003°49'4 4.4
2014-Oct-14 18:34N 51°19' E 003°49'1 1.0
2014-Oct-14 17:34N 51°20' E 003°49'2 2.2
2014-Oct-14 16:33N 51°21' E 003°52'2 2.1
2014-Oct-14 15:34N 51°20' E 003°49'0 0.0
2014-Oct-14 14:33N 51°20' E 003°49'0 0.0
2014-Oct-14 13:34N 51°20' E 003°49'0 0.0
2014-Oct-14 12:34N 51°20' E 003°49'0 0.0
2014-Oct-14 11:34N 51°20' E 003°49'0 0.0
2014-Oct-14 10:34N 51°20' E 003°49'0 0.0
2014-Oct-14 09:34N 51°20' E 003°49'0 0.0
2014-Oct-14 08:33N 51°20' E 003°49'0 0.0
2014-Oct-14 07:34N 51°20' E 003°49'0 0.0
2014-Oct-14 06:34N 51°20' E 003°49'2 1.9
2014-Oct-14 05:33N 51°21' E 003°52'0 0.0
2014-Oct-14 04:33N 51°21' E 003°52'0 0.0
2014-Oct-14 03:33N 51°21' E 003°52'0 0.0
2014-Oct-14 02:33N 51°21' E 003°52'0 0.0
2014-Oct-14 01:33N 51°21' E 003°52'0 0.0
2014-Oct-14 00:33N 51°21' E 003°52'0 0.1
2014-Oct-13 23:34N 51°21' E 003°52'0 0.1
2014-Oct-13 22:33N 51°21' E 003°52'0 0.1
2014-Oct-13 21:33N 51°21' E 003°52'0 0.0
2014-Oct-13 20:34N 51°21' E 003°52'0 0.0
2014-Oct-13 19:33N 51°21' E 003°52'0 0.0
2014-Oct-13 18:34N 51°21' E 003°52'2 1.8
2014-Oct-13 17:33N 51°21' E 003°49'7 7.0
2014-Oct-13 16:33N 51°26' E 003°41'2 1.9
2014-Oct-13 15:33N 51°28' E 003°40'0 0.0
2014-Oct-13 14:33N 51°28' E 003°40'0 0.0
2014-Oct-13 13:34N 51°28' E 003°40'0 0.0
2014-Oct-13 12:33N 51°28' E 003°40'0 0.0
2014-Oct-13 11:33N 51°28' E 003°40'0 0.0
2014-Oct-13 10:34N 51°28' E 003°40'0 0.0
2014-Oct-13 09:34N 51°28' E 003°40'0 0.0
2014-Oct-13 08:34N 51°28' E 003°40'0 0.0
2014-Oct-13 07:34N 51°28' E 003°40'0 0.0
2014-Oct-13 06:33N 51°28' E 003°40'0 0.0
2014-Oct-13 05:33N 51°28' E 003°40'0 0.0
2014-Oct-13 04:34N 51°28' E 003°40'0 0.0
2014-Oct-13 03:33N 51°28' E 003°40'0 0.0
2014-Oct-13 02:34N 51°28' E 003°40'0 0.0
2014-Oct-13 01:33N 51°28' E 003°40'0 0.0
2014-Oct-13 00:33N 51°28' E 003°40'0 0.0
2014-Oct-12 23:33N 51°28' E 003°40'2 1.7
2014-Oct-12 22:33N 51°26' E 003°41'8 7.9
2014-Oct-12 21:34N 51°20' E 003°49'0 0.4
2014-Oct-12 20:34N 51°19' E 003°49'1 1.4
2014-Oct-12 19:34N 51°18' E 003°50'2 1.7
2014-Oct-12 18:33N 51°20' E 003°49'3 3.3
2014-Oct-12 17:33N 51°22' E 003°45'3 2.9
2014-Oct-12 16:34N 51°20' E 003°49'0 0.0
2014-Oct-12 15:34N 51°20' E 003°49'0 0.0
2014-Oct-12 14:34N 51°20' E 003°49'0 0.0
2014-Oct-12 13:34N 51°20' E 003°49'0 0.0
2014-Oct-12 12:34N 51°20' E 003°49'0 0.0
2014-Oct-12 11:34N 51°20' E 003°49'0 0.0
2014-Oct-12 10:33N 51°20' E 003°49'0 0.0
2014-Oct-12 09:34N 51°20' E 003°49'2 1.7
2014-Oct-12 08:33N 51°21' E 003°47'2 1.6
2014-Oct-12 07:33N 51°22' E 003°44'3 3.3
2014-Oct-12 06:34N 51°20' E 003°49'0 0.0
2014-Oct-12 05:34N 51°20' E 003°49'0 0.0
2014-Oct-12 04:34N 51°20' E 003°49'0 0.0
2014-Oct-12 03:34N 51°20' E 003°49'0 0.0
2014-Oct-12 02:34N 51°20' E 003°49'0 0.0
2014-Oct-12 01:34N 51°20' E 003°49'0 0.0
2014-Oct-12 00:34N 51°20' E 003°49'0 0.0
2014-Oct-11 23:34N 51°20' E 003°49'0 0.0
2014-Oct-11 22:33N 51°20' E 003°49'0 0.0
2014-Oct-11 21:34N 51°20' E 003°49'0 0.0
2014-Oct-11 20:34N 51°20' E 003°49'0 0.0
2014-Oct-11 19:34N 51°20' E 003°49'0 0.0
2014-Oct-11 18:34N 51°20' E 003°49'0 0.0
2014-Oct-11 17:34N 51°20' E 003°49'0 0.0
2014-Oct-11 16:34N 51°20' E 003°49'0 0.0
2014-Oct-11 15:34N 51°20' E 003°49'0 0.0
2014-Oct-11 14:34N 51°20' E 003°49'0 0.0
2014-Oct-11 13:33N 51°20' E 003°49'0 0.0
2014-Oct-11 12:34N 51°20' E 003°49'0 0.0
2014-Oct-11 11:34N 51°20' E 003°49'0 0.0
2014-Oct-11 10:34N 51°20' E 003°49'0 0.0
2014-Oct-11 09:34N 51°20' E 003°49'  
Track history (hours):
 
Tides and Currents Weather Stations Pressure Air Temp Water Temp Dewpoint Dewpoint Depression Visibility Wind Speed Wind Dir Waves Ship Positions

Multratug 19

Last reported at 2014-Oct-21 09:33 UTC. Time now 2014-Oct-21 10:35 UTC.
Position N 51°20' E 003°49'.

Length 32 m; draft 5.6 m.

Type: Tug. MMSI: 245875000.

Date/timePositionNaut miles runAvg speedWind from/ knotsBaromVisibWave heightAir tempDewpointWater temp
2014-Oct-21 09:33N 51°20' E 003°49'0 0.0
2014-Oct-21 08:33N 51°20' E 003°49'0 0.0
2014-Oct-21 07:34N 51°20' E 003°49'0 0.0
2014-Oct-21 06:34N 51°20' E 003°49'1 0.6
2014-Oct-21 05:34N 51°20' E 003°49'3 3.2
2014-Oct-21 04:34N 51°17' E 003°51'0 0.3
2014-Oct-21 03:33N 51°16' E 003°51'0 0.0
2014-Oct-21 02:33N 51°16' E 003°51'0 0.0
2014-Oct-21 01:33N 51°16' E 003°51'4 4.3
2014-Oct-21 00:34N 51°20' E 003°49'2 2.3
2014-Oct-20 23:34N 51°22' E 003°45'3 3.0
2014-Oct-20 22:34N 51°20' E 003°49'1 0.7
2014-Oct-20 21:33N 51°19' E 003°50'3 2.8
2014-Oct-20 20:33N 51°16' E 003°51'0 0.1
2014-Oct-20 19:33N 51°16' E 003°51'1 1.1
2014-Oct-20 18:34N 51°17' E 003°50'2 2.3
2014-Oct-20 17:34N 51°20' E 003°49'1 0.6
2014-Oct-20 16:33N 51°20' E 003°49'0 0.0
2014-Oct-20 15:34N 51°20' E 003°49'0 0.0
2014-Oct-20 14:33N 51°20' E 003°49'1 0.7
2014-Oct-20 13:33N 51°20' E 003°49'3 2.9
2014-Oct-20 12:34N 51°17' E 003°50'3 3.0
2014-Oct-20 11:34N 51°20' E 003°49'4 3.5
2014-Oct-20 10:33N 51°22' E 003°44'3 3.2
2014-Oct-20 09:34N 51°20' E 003°49'0 0.0
2014-Oct-20 08:34N 51°20' E 003°49'0 0.0
2014-Oct-20 07:34N 51°20' E 003°49'0 0.0
2014-Oct-20 06:34N 51°20' E 003°49'0 0.0
2014-Oct-20 05:34N 51°20' E 003°49'0 0.0
2014-Oct-20 04:34N 51°20' E 003°49'0 0.0
2014-Oct-20 03:34N 51°20' E 003°49'0 0.0
2014-Oct-20 02:34N 51°20' E 003°49'0 0.0
2014-Oct-20 01:33N 51°20' E 003°49'0 0.0
2014-Oct-20 00:34N 51°20' E 003°49'0 0.0
2014-Oct-19 23:34N 51°20' E 003°49'0 0.4
2014-Oct-19 22:34N 51°20' E 003°49'4 3.6
2014-Oct-19 21:33N 51°16' E 003°51'3 3.1
2014-Oct-19 20:33N 51°19' E 003°49'0 0.4
2014-Oct-19 19:34N 51°20' E 003°49'3 2.9
2014-Oct-19 18:33N 51°22' E 003°45'3 2.6
2014-Oct-19 17:34N 51°20' E 003°49'0 0.0
2014-Oct-19 16:34N 51°20' E 003°49'0 0.0
2014-Oct-19 15:34N 51°20' E 003°49'0 0.0
2014-Oct-19 14:34N 51°20' E 003°49'0 0.0
2014-Oct-19 13:34N 51°20' E 003°49'0 0.0
2014-Oct-19 12:34N 51°20' E 003°49'0 0.0
2014-Oct-19 11:34N 51°20' E 003°49'0 0.0
2014-Oct-19 10:34N 51°20' E 003°49'0 0.0
2014-Oct-19 09:33N 51°20' E 003°49'0 0.0
2014-Oct-19 08:34N 51°20' E 003°49'0 0.0
2014-Oct-19 07:34N 51°20' E 003°49'0 0.0
2014-Oct-19 06:34N 51°20' E 003°49'0 0.0
2014-Oct-19 05:34N 51°20' E 003°49'0 0.0
2014-Oct-19 04:34N 51°20' E 003°49'1 0.7
2014-Oct-19 03:33N 51°21' E 003°48'5 4.7
2014-Oct-19 02:33N 51°25' E 003°44'5 5.3
2014-Oct-19 01:34N 51°20' E 003°49'0 0.2
2014-Oct-19 00:33N 51°20' E 003°49'0 0.0
2014-Oct-18 23:34N 51°20' E 003°49'0 0.0
2014-Oct-18 22:34N 51°20' E 003°49'0 0.0
2014-Oct-18 21:34N 51°20' E 003°49'0 0.0
2014-Oct-18 20:34N 51°20' E 003°49'0 0.0
2014-Oct-18 19:33N 51°20' E 003°49'0 0.0
2014-Oct-18 18:33N 51°20' E 003°49'0 0.0
2014-Oct-18 17:33N 51°20' E 003°49'0 0.0
2014-Oct-18 16:34N 51°20' E 003°49'0 0.0
2014-Oct-18 15:34N 51°20' E 003°49'0 0.0
2014-Oct-18 14:34N 51°20' E 003°49'0 0.0
2014-Oct-18 13:34N 51°20' E 003°49'0 0.0
2014-Oct-18 12:34N 51°20' E 003°49'0 0.0
2014-Oct-18 11:33N 51°20' E 003°49'0 0.0
2014-Oct-18 10:34N 51°20' E 003°49'0 0.0
2014-Oct-18 09:33N 51°20' E 003°49'0 0.0
2014-Oct-18 08:34N 51°20' E 003°49'0 0.0
2014-Oct-18 07:34N 51°20' E 003°49'0 0.0
2014-Oct-18 06:33N 51°20' E 003°49'0 0.0
2014-Oct-18 05:34N 51°20' E 003°49'0 0.0
2014-Oct-18 04:34N 51°20' E 003°49'1 0.8
2014-Oct-18 03:34N 51°19' E 003°49'4 4.0
2014-Oct-18 02:34N 51°16' E 003°50'6 6.5
2014-Oct-18 01:33N 51°09' E 003°47'1 0.6
2014-Oct-18 00:33N 51°09' E 003°48'3 2.7
2014-Oct-17 23:33N 51°11' E 003°48'7 7.4
2014-Oct-17 22:33N 51°19' E 003°50'2 1.6
2014-Oct-17 21:33N 51°20' E 003°49'0 0.0
2014-Oct-17 20:34N 51°20' E 003°49'0 0.0
2014-Oct-17 19:34N 51°20' E 003°49'0 0.0
2014-Oct-17 18:34N 51°20' E 003°49'0 0.0
2014-Oct-17 17:34N 51°20' E 003°49'0 0.0
2014-Oct-17 16:34N 51°20' E 003°49'0 0.0
2014-Oct-17 15:33N 51°20' E 003°49'0 0.0
2014-Oct-17 14:34N 51°20' E 003°49'0 0.0
2014-Oct-17 13:34N 51°20' E 003°49'0 0.0
2014-Oct-17 12:33N 51°20' E 003°49'0 0.0
2014-Oct-17 11:34N 51°20' E 003°49'0 0.0
2014-Oct-17 10:34N 51°20' E 003°49'7 6.8
2014-Oct-17 09:33N 51°25' E 003°42'2 1.9
2014-Oct-17 08:34N 51°27' E 003°42'4 3.5
2014-Oct-17 07:33N 51°26' E 003°37'4 4.1
2014-Oct-17 06:33N 51°23' E 003°42'2 2.5
2014-Oct-17 05:34N 51°22' E 003°45'3 2.7
2014-Oct-17 04:34N 51°20' E 003°49'0 0.0
2014-Oct-17 03:33N 51°20' E 003°49'0 0.0
2014-Oct-17 02:34N 51°20' E 003°49'0 0.0
2014-Oct-17 01:33N 51°20' E 003°49'0 0.0
2014-Oct-17 00:34N 51°20' E 003°49'0 0.0
2014-Oct-16 23:34N 51°20' E 003°49'0 0.2
2014-Oct-16 22:33N 51°20' E 003°49'6 6.3
2014-Oct-16 21:33N 51°14' E 003°48'8 8.3
2014-Oct-16 20:33N 51°06' E 003°45'3 2.8
2014-Oct-16 19:34N 51°08' E 003°47'6 6.0
2014-Oct-16 18:33N 51°14' E 003°49'5 5.3
2014-Oct-16 17:33N 51°20' E 003°49'3 2.8
2014-Oct-16 16:34N 51°22' E 003°46'2 2.3
2014-Oct-16 15:34N 51°20' E 003°49'0 0.0
2014-Oct-16 14:33N 51°20' E 003°49'0 0.0
2014-Oct-16 13:33N 51°20' E 003°49'0 0.0
2014-Oct-16 12:33N 51°20' E 003°49'0 0.0
2014-Oct-16 11:34N 51°20' E 003°49'0 0.0
2014-Oct-16 10:34N 51°20' E 003°49'0 0.0
2014-Oct-16 09:33N 51°20' E 003°49'0 0.0
2014-Oct-16 08:34N 51°20' E 003°49'0 0.0
2014-Oct-16 07:34N 51°20' E 003°49'0 0.0
2014-Oct-16 06:34N 51°20' E 003°49'0 0.0
2014-Oct-16 05:34N 51°20' E 003°49'0 0.0
2014-Oct-16 04:34N 51°20' E 003°49'0 0.0
2014-Oct-16 03:34N 51°20' E 003°49'0 0.0
2014-Oct-16 02:33N 51°20' E 003°49'0 0.0
2014-Oct-16 01:34N 51°20' E 003°49'0 0.0
2014-Oct-16 00:34N 51°20' E 003°49'0 0.0
2014-Oct-15 23:34N 51°20' E 003°49'0 0.0
2014-Oct-15 22:34N 51°20' E 003°49'0 0.0
2014-Oct-15 21:33N 51°20' E 003°49'7 7.1
2014-Oct-15 20:34N 51°26' E 003°41'2 1.8
2014-Oct-15 19:34N 51°27' E 003°41'1 1.3
2014-Oct-15 18:34N 51°27' E 003°40'1 1.1
2014-Oct-15 17:33N 51°28' E 003°40'0 0.0
2014-Oct-15 16:33N 51°28' E 003°40'0 0.1
2014-Oct-15 15:33N 51°28' E 003°40'0 0.4
2014-Oct-15 14:34N 51°28' E 003°41'4 3.5
2014-Oct-15 13:33N 51°24' E 003°43'6 5.5
2014-Oct-15 12:34N 51°20' E 003°49'0 0.0
2014-Oct-15 11:34N 51°20' E 003°49'0 0.0
2014-Oct-15 10:33N 51°20' E 003°49'0 0.0
2014-Oct-15 09:34N 51°20' E 003°49'0 0.0
2014-Oct-15 08:34N 51°20' E 003°49'0 0.0
2014-Oct-15 07:34N 51°20' E 003°49'0 0.0
2014-Oct-15 06:34N 51°20' E 003°49'2 1.8
2014-Oct-15 05:33N 51°21' E 003°46'2 1.8
2014-Oct-15 04:33N 51°20' E 003°49'0 0.0
2014-Oct-15 03:33N 51°20' E 003°49'0 0.0
2014-Oct-15 02:33N 51°20' E 003°49'0 0.0
2014-Oct-15 01:33N 51°20' E 003°49'0 0.0
2014-Oct-15 00:34N 51°20' E 003°49'1 0.6
2014-Oct-14 23:33N 51°20' E 003°49'0 0.2
2014-Oct-14 22:34N 51°19' E 003°49'6 5.8
2014-Oct-14 21:33N 51°14' E 003°48'3 2.9
2014-Oct-14 20:34N 51°11' E 003°48'4 4.0
2014-Oct-14 19:34N 51°15' E 003°49'4 4.4
2014-Oct-14 18:34N 51°19' E 003°49'1 1.0
2014-Oct-14 17:34N 51°20' E 003°49'2 2.2
2014-Oct-14 16:33N 51°21' E 003°52'2 2.1
2014-Oct-14 15:34N 51°20' E 003°49'0 0.0
2014-Oct-14 14:33N 51°20' E 003°49'0 0.0
2014-Oct-14 13:34N 51°20' E 003°49'0 0.0
2014-Oct-14 12:34N 51°20' E 003°49'0 0.0
2014-Oct-14 11:34N 51°20' E 003°49'0 0.0
2014-Oct-14 10:34N 51°20' E 003°49'0 0.0
2014-Oct-14 09:34N 51°20' E 003°49'0 0.0
2014-Oct-14 08:33N 51°20' E 003°49'0 0.0
2014-Oct-14 07:34N 51°20' E 003°49'0 0.0
2014-Oct-14 06:34N 51°20' E 003°49'2 1.9
2014-Oct-14 05:33N 51°21' E 003°52'0 0.0
2014-Oct-14 04:33N 51°21' E 003°52'0 0.0
2014-Oct-14 03:33N 51°21' E 003°52'0 0.0
2014-Oct-14 02:33N 51°21' E 003°52'0 0.0
2014-Oct-14 01:33N 51°21' E 003°52'0 0.0
2014-Oct-14 00:33N 51°21' E 003°52'0 0.1
2014-Oct-13 23:34N 51°21' E 003°52'0 0.1
2014-Oct-13 22:33N 51°21' E 003°52'0 0.1
2014-Oct-13 21:33N 51°21' E 003°52'0 0.0
2014-Oct-13 20:34N 51°21' E 003°52'0 0.0
2014-Oct-13 19:33N 51°21' E 003°52'0 0.0
2014-Oct-13 18:34N 51°21' E 003°52'2 1.8
2014-Oct-13 17:33N 51°21' E 003°49'7 7.0
2014-Oct-13 16:33N 51°26' E 003°41'2 1.9
2014-Oct-13 15:33N 51°28' E 003°40'0 0.0
2014-Oct-13 14:33N 51°28' E 003°40'0 0.0
2014-Oct-13 13:34N 51°28' E 003°40'0 0.0
2014-Oct-13 12:33N 51°28' E 003°40'0 0.0
2014-Oct-13 11:33N 51°28' E 003°40'0 0.0
2014-Oct-13 10:34N 51°28' E 003°40'0 0.0
2014-Oct-13 09:34N 51°28' E 003°40'0 0.0
2014-Oct-13 08:34N 51°28' E 003°40'0 0.0
2014-Oct-13 07:34N 51°28' E 003°40'0 0.0
2014-Oct-13 06:33N 51°28' E 003°40'0 0.0
2014-Oct-13 05:33N 51°28' E 003°40'0 0.0
2014-Oct-13 04:34N 51°28' E 003°40'0 0.0
2014-Oct-13 03:33N 51°28' E 003°40'0 0.0
2014-Oct-13 02:34N 51°28' E 003°40'0 0.0
2014-Oct-13 01:33N 51°28' E 003°40'0 0.0
2014-Oct-13 00:33N 51°28' E 003°40'0 0.0
2014-Oct-12 23:33N 51°28' E 003°40'2 1.7
2014-Oct-12 22:33N 51°26' E 003°41'8 7.9
2014-Oct-12 21:34N 51°20' E 003°49'0 0.4
2014-Oct-12 20:34N 51°19' E 003°49'1 1.4
2014-Oct-12 19:34N 51°18' E 003°50'2 1.7
2014-Oct-12 18:33N 51°20' E 003°49'3 3.3
2014-Oct-12 17:33N 51°22' E 003°45'3 2.9
2014-Oct-12 16:34N 51°20' E 003°49'0 0.0
2014-Oct-12 15:34N 51°20' E 003°49'0 0.0
2014-Oct-12 14:34N 51°20' E 003°49'0 0.0
2014-Oct-12 13:34N 51°20' E 003°49'0 0.0
2014-Oct-12 12:34N 51°20' E 003°49'0 0.0
2014-Oct-12 11:34N 51°20' E 003°49'0 0.0
2014-Oct-12 10:33N 51°20' E 003°49'0 0.0
2014-Oct-12 09:34N 51°20' E 003°49'2 1.7
2014-Oct-12 08:33N 51°21' E 003°47'2 1.6
2014-Oct-12 07:33N 51°22' E 003°44'3 3.3
2014-Oct-12 06:34N 51°20' E 003°49'0 0.0
2014-Oct-12 05:34N 51°20' E 003°49'0 0.0
2014-Oct-12 04:34N 51°20' E 003°49'0 0.0
2014-Oct-12 03:34N 51°20' E 003°49'0 0.0
2014-Oct-12 02:34N 51°20' E 003°49'0 0.0
2014-Oct-12 01:34N 51°20' E 003°49'0 0.0
2014-Oct-12 00:34N 51°20' E 003°49'0 0.0
2014-Oct-11 23:34N 51°20' E 003°49'0 0.0
2014-Oct-11 22:33N 51°20' E 003°49'0 0.0
2014-Oct-11 21:34N 51°20' E 003°49'0 0.0
2014-Oct-11 20:34N 51°20' E 003°49'0 0.0
2014-Oct-11 19:34N 51°20' E 003°49'0 0.0
2014-Oct-11 18:34N 51°20' E 003°49'0 0.0
2014-Oct-11 17:34N 51°20' E 003°49'0 0.0
2014-Oct-11 16:34N 51°20' E 003°49'0 0.0
2014-Oct-11 15:34N 51°20' E 003°49'0 0.0
2014-Oct-11 14:34N 51°20' E 003°49'0 0.0
2014-Oct-11 13:33N 51°20' E 003°49'0 0.0
2014-Oct-11 12:34N 51°20' E 003°49'0 0.0
2014-Oct-11 11:34N 51°20' E 003°49'0 0.0
2014-Oct-11 10:34N 51°20' E 003°49'0 0.0
2014-Oct-11 09:34N 51°20' E 003°49'  

Dump ship's entire track history